createdAt,value
2023-09-23T00:00:19.667Z,82.43
2023-09-23T00:01:22.975Z,82.50
2023-09-23T00:02:24.954Z,82.50
2023-09-23T00:03:27.943Z,82.68
2023-09-23T00:04:30.806Z,82.92
2023-09-23T00:05:37.050Z,83.00
2023-09-23T00:06:39.119Z,83.12
2023-09-23T00:07:44.119Z,83.18
2023-09-23T00:08:46.258Z,83.14
2023-09-23T00:09:49.499Z,83.28
2023-09-23T00:10:52.284Z,83.58
2023-09-23T00:11:56.546Z,83.66
2023-09-23T00:12:58.438Z,83.75
2023-09-23T00:14:02.238Z,83.74
2023-09-23T00:15:06.660Z,83.99
2023-09-23T00:16:10.737Z,84.15
2023-09-23T00:18:18.690Z,84.60
2023-09-23T00:19:21.080Z,84.83
2023-09-23T00:20:24.129Z,85.23
2023-09-23T00:21:26.217Z,85.46
2023-09-23T00:22:29.029Z,85.73
2023-09-23T00:23:32.190Z,86.06
2023-09-23T00:24:35.143Z,86.30
2023-09-23T00:25:37.073Z,86.61
2023-09-23T00:26:39.869Z,86.87
2023-09-23T00:27:43.198Z,87.17
2023-09-23T00:28:47.872Z,87.40
2023-09-23T00:29:50.374Z,87.77
2023-09-23T00:30:52.368Z,87.97
2023-09-23T00:31:57.004Z,88.21
2023-09-23T00:33:01.966Z,88.55
2023-09-23T00:34:06.085Z,88.87
2023-09-23T00:35:11.518Z,89.05
2023-09-23T00:36:15.198Z,89.39
2023-09-23T00:37:17.019Z,89.64
2023-09-23T00:38:21.141Z,89.69
2023-09-23T00:39:23.122Z,90.21
2023-09-23T00:40:30.766Z,89.93
2023-09-23T00:41:32.637Z,90.12
2023-09-23T00:42:35.790Z,90.10
2023-09-23T00:43:39.161Z,90.44
2023-09-23T00:44:41.132Z,90.59
2023-09-23T00:45:47.409Z,90.76
2023-09-23T00:46:49.259Z,91.11
2023-09-23T00:47:53.249Z,91.27
2023-09-23T00:48:56.195Z,91.42
2023-09-23T00:49:59.040Z,91.91
2023-09-23T00:51:01.155Z,91.94
2023-09-23T00:52:06.900Z,92.39
2023-09-23T00:53:09.372Z,92.58
2023-09-23T00:54:15.056Z,92.57
2023-09-23T00:55:17.411Z,92.62
2023-09-23T00:56:24.394Z,92.80
2023-09-23T00:57:26.572Z,92.91
2023-09-23T00:58:29.598Z,92.85
2023-09-23T00:59:36.250Z,92.96
2023-09-23T01:00:44.915Z,93.39
2023-09-23T01:01:50.072Z,93.37
2023-09-23T01:02:56.968Z,93.57
2023-09-23T01:03:59.449Z,93.62
2023-09-23T01:05:02.438Z,93.83
2023-09-23T01:06:06.136Z,94.13
2023-09-23T01:07:10.671Z,94.06
2023-09-23T01:08:13.071Z,94.22
2023-09-23T01:09:22.242Z,94.12
2023-09-23T01:10:24.849Z,94.55
2023-09-23T01:11:28.656Z,94.65
2023-09-23T01:12:31.500Z,94.75
2023-09-23T01:13:33.370Z,94.60
2023-09-23T01:14:37.504Z,94.78
2023-09-23T01:15:41.439Z,94.70
2023-09-23T01:16:44.844Z,94.88
2023-09-23T01:17:49.120Z,95.05
2023-09-23T01:18:52.263Z,94.86
2023-09-23T01:19:54.458Z,94.90
2023-09-23T01:20:59.801Z,94.96
2023-09-23T01:22:02.840Z,94.96
2023-09-23T01:23:06.463Z,95.01
2023-09-23T01:24:09.933Z,95.24
2023-09-23T01:25:11.861Z,94.82
2023-09-23T01:26:14.757Z,95.26
2023-09-23T01:27:19.385Z,95.20
2023-09-23T01:28:22.253Z,95.30
2023-09-23T01:29:24.669Z,95.39
2023-09-23T01:30:28.084Z,95.13
2023-09-23T01:31:30.659Z,94.86
2023-09-23T01:32:41.515Z,95.04
2023-09-23T01:33:43.568Z,94.85
2023-09-23T01:34:46.603Z,95.26
2023-09-23T01:35:49.659Z,95.23
2023-09-23T01:38:38.362Z,95.52
2023-09-23T01:39:42.546Z,95.92
2023-09-23T01:40:45.528Z,95.81
2023-09-23T01:41:47.442Z,95.87
2023-09-23T01:42:52.459Z,95.99
2023-09-23T01:43:55.333Z,95.99
2023-09-23T01:44:59.139Z,96.21
2023-09-23T01:46:05.243Z,96.35
2023-09-23T01:47:08.477Z,96.23
2023-09-23T01:48:10.428Z,95.57
2023-09-23T01:49:13.345Z,96.11
2023-09-23T01:50:15.382Z,96.14
2023-09-23T01:51:18.745Z,95.92
2023-09-23T01:52:20.982Z,95.78
2023-09-23T01:53:25.358Z,95.64
2023-09-23T01:54:28.522Z,95.74
2023-09-23T01:55:31.643Z,95.61
2023-09-23T01:56:35.208Z,95.63
2023-09-23T01:57:38.396Z,95.78
2023-09-23T01:58:40.307Z,96.50
2023-09-23T01:59:43.396Z,96.53
2023-09-23T02:00:45.535Z,97.04
2023-09-23T02:01:50.091Z,97.00
2023-09-23T02:02:55.173Z,96.96
2023-09-23T02:03:58.961Z,97.19
2023-09-23T02:05:01.056Z,97.10
2023-09-23T02:06:04.044Z,96.82
2023-09-23T02:07:06.524Z,97.14
2023-09-23T02:08:09.436Z,97.03
2023-09-23T02:09:11.439Z,97.31
2023-09-23T02:10:16.569Z,96.95
2023-09-23T02:11:19.447Z,96.98
2023-09-23T02:12:22.279Z,97.06
2023-09-23T02:13:24.162Z,97.14
2023-09-23T02:14:27.001Z,97.26
2023-09-23T02:15:29.596Z,97.82
2023-09-23T02:16:32.460Z,97.75
2023-09-23T02:17:37.410Z,97.80
2023-09-23T02:18:40.909Z,97.33
2023-09-23T02:19:43.542Z,97.63
2023-09-23T02:20:46.455Z,97.78
2023-09-23T02:21:49.003Z,97.74
2023-09-23T02:22:54.304Z,97.63
2023-09-23T02:23:57.119Z,97.92
2023-09-23T02:24:59.922Z,97.81
2023-09-23T02:26:03.178Z,98.18
2023-09-23T02:27:06.138Z,98.15
2023-09-23T02:28:09.021Z,98.39
2023-09-23T02:29:11.922Z,98.15
2023-09-23T02:30:14.499Z,98.00
2023-09-23T02:31:17.454Z,98.27
2023-09-23T02:32:19.430Z,98.25
2023-09-23T02:33:22.815Z,98.10
2023-09-23T02:34:24.762Z,98.47
2023-09-23T02:35:27.604Z,98.47
2023-09-23T02:36:29.707Z,98.99
2023-09-23T02:37:32.538Z,98.65
2023-09-23T02:38:34.378Z,98.47
2023-09-23T02:39:37.201Z,98.42
2023-09-23T02:40:41.513Z,98.55
2023-09-23T02:41:47.317Z,98.49
2023-09-23T02:42:52.859Z,98.74
2023-09-23T02:43:56.732Z,99.12
2023-09-23T02:44:59.453Z,98.98
2023-09-23T02:46:02.845Z,99.08
2023-09-23T02:47:05.488Z,98.97
2023-09-23T02:48:09.779Z,99.18
2023-09-23T02:49:14.212Z,98.69
2023-09-23T02:50:18.859Z,98.76
2023-09-23T02:51:20.956Z,98.80
2023-09-23T02:52:23.775Z,98.82
2023-09-23T02:53:25.621Z,99.00
2023-09-23T02:54:28.608Z,98.98
2023-09-23T02:55:30.459Z,99.31
2023-09-23T02:56:33.566Z,99.39
2023-09-23T02:57:37.891Z,99.26
2023-09-23T02:58:41.366Z,99.83
2023-09-23T02:59:45.852Z,99.68
2023-09-23T03:00:58.080Z,99.59
2023-09-23T03:02:02.082Z,99.97
2023-09-23T03:03:10.256Z,99.75
2023-09-23T03:04:18.355Z,100.00
2023-09-23T03:05:26.386Z,100.00
2023-09-23T03:06:31.341Z,100.00
2023-09-23T03:07:36.134Z,100.00
2023-09-23T03:08:39.478Z,100.00
2023-09-23T03:09:48.728Z,100.00
2023-09-23T03:10:53.270Z,100.00
2023-09-23T03:11:57.037Z,100.00
2023-09-23T03:13:06.794Z,100.00
2023-09-23T03:14:13.347Z,100.00
2023-09-23T03:15:15.750Z,100.00
2023-09-23T03:16:29.245Z,100.00
2023-09-23T03:17:32.387Z,100.00
2023-09-23T03:18:37.822Z,100.00
2023-09-23T03:19:39.768Z,100.00
2023-09-23T03:20:43.108Z,100.00
2023-09-23T03:21:46.536Z,100.00
2023-09-23T03:22:50.644Z,100.00
2023-09-23T03:23:54.243Z,100.00
2023-09-23T03:24:58.122Z,99.66
2023-09-23T03:26:01.537Z,99.83
2023-09-23T03:27:04.551Z,99.91
2023-09-23T03:28:07.819Z,100.00
2023-09-23T03:29:10.793Z,100.00
2023-09-23T03:30:13.892Z,100.00
2023-09-23T03:31:18.710Z,100.00
2023-09-23T03:32:25.231Z,100.00
2023-09-23T03:33:28.752Z,100.00
2023-09-23T03:34:33.494Z,99.98
2023-09-23T03:35:37.299Z,100.00
2023-09-23T03:36:40.093Z,100.00
2023-09-23T03:37:42.981Z,100.00
2023-09-23T03:38:45.309Z,100.00
2023-09-23T03:39:48.427Z,100.00
2023-09-23T03:40:52.410Z,100.00
2023-09-23T03:41:57.644Z,100.00
2023-09-23T03:43:02.220Z,100.00
2023-09-23T03:44:08.535Z,100.00
2023-09-23T03:45:11.387Z,100.00
2023-09-23T03:46:15.995Z,100.00
2023-09-23T03:47:18.237Z,100.00
2023-09-23T03:48:21.568Z,100.00
2023-09-23T03:49:23.582Z,100.00
2023-09-23T03:50:26.950Z,100.00
2023-09-23T03:51:29.186Z,100.00
2023-09-23T03:52:32.193Z,100.00
2023-09-23T03:53:34.183Z,100.00
2023-09-23T03:54:37.262Z,100.00
2023-09-23T03:55:40.294Z,100.00
2023-09-23T03:56:43.241Z,100.00
2023-09-23T03:57:45.702Z,100.00
2023-09-23T03:58:48.810Z,100.00
2023-09-23T03:59:52.318Z,100.00
2023-09-23T04:00:57.097Z,100.00
2023-09-23T04:01:59.105Z,100.00
2023-09-23T04:03:02.245Z,100.00
2023-09-23T04:04:04.524Z,100.00
2023-09-23T04:05:08.122Z,100.00
2023-09-23T04:06:10.074Z,100.00
2023-09-23T04:07:15.420Z,99.99
2023-09-23T04:08:17.275Z,100.00
2023-09-23T04:09:20.115Z,100.00
2023-09-23T04:10:24.747Z,100.00
2023-09-23T04:11:27.822Z,100.00
2023-09-23T04:12:29.749Z,100.00
2023-09-23T04:13:32.939Z,100.00
2023-09-23T04:14:35.280Z,100.00
2023-09-23T04:15:38.550Z,100.00
2023-09-23T04:16:41.349Z,100.00
2023-09-23T04:17:43.242Z,100.00
2023-09-23T04:18:47.390Z,100.00
2023-09-23T04:19:50.046Z,100.00
2023-09-23T04:20:54.563Z,100.00
2023-09-23T04:21:57.275Z,100.00
2023-09-23T04:23:00.356Z,100.00
2023-09-23T04:24:02.521Z,100.00
2023-09-23T04:25:07.118Z,100.00
2023-09-23T04:26:09.604Z,100.00
2023-09-23T04:27:12.715Z,100.00
2023-09-23T04:28:14.881Z,100.00
2023-09-23T04:29:21.044Z,100.00
2023-09-23T04:30:23.387Z,100.00
2023-09-23T04:31:27.581Z,100.00
2023-09-23T04:32:29.788Z,100.00
2023-09-23T04:33:32.909Z,100.00
2023-09-23T04:34:37.155Z,100.00
2023-09-23T04:35:39.109Z,100.00
2023-09-23T04:36:41.877Z,100.00
2023-09-23T04:37:43.850Z,100.00
2023-09-23T04:38:46.760Z,100.00
2023-09-23T04:39:48.735Z,100.00
2023-09-23T04:40:50.774Z,100.00
2023-09-23T04:41:53.597Z,100.00
2023-09-23T04:42:55.428Z,100.00
2023-09-23T04:43:58.578Z,100.00
2023-09-23T04:45:00.412Z,100.00
2023-09-23T04:46:03.451Z,100.00
2023-09-23T04:47:07.221Z,100.00
2023-09-23T04:48:11.169Z,100.00
2023-09-23T04:49:13.072Z,100.00
2023-09-23T04:50:18.004Z,100.00
2023-09-23T04:51:19.838Z,100.00
2023-09-23T04:52:22.687Z,100.00
2023-09-23T04:53:24.781Z,100.00
2023-09-23T04:54:27.600Z,100.00
2023-09-23T04:55:29.620Z,100.00
2023-09-23T04:56:32.451Z,100.00
2023-09-23T04:57:34.854Z,100.00
2023-09-23T04:58:37.654Z,100.00
2023-09-23T04:59:39.828Z,100.00
2023-09-23T05:00:42.629Z,100.00
2023-09-23T05:01:45.075Z,100.00
2023-09-23T05:02:51.465Z,100.00
2023-09-23T05:03:53.718Z,100.00
2023-09-23T05:04:55.738Z,100.00
2023-09-23T05:05:58.718Z,100.00
2023-09-23T05:07:01.880Z,100.00
2023-09-23T05:08:06.304Z,100.00
2023-09-23T05:09:09.600Z,100.00
2023-09-23T05:10:12.816Z,100.00
2023-09-23T05:11:14.775Z,100.00
2023-09-23T05:12:17.628Z,100.00
2023-09-23T05:13:19.484Z,100.00
2023-09-23T05:14:22.379Z,100.00
2023-09-23T05:15:25.584Z,100.00
2023-09-23T05:16:29.564Z,100.00
2023-09-23T05:17:31.848Z,100.00
2023-09-23T05:18:37.132Z,100.00
2023-09-23T05:19:43.457Z,100.00
2023-09-23T05:20:48.872Z,100.00
2023-09-23T05:21:51.234Z,100.00
2023-09-23T05:22:54.135Z,100.00
2023-09-23T05:23:57.380Z,100.00
2023-09-23T05:25:00.227Z,100.00
2023-09-23T05:26:02.078Z,100.00
2023-09-23T05:27:05.500Z,100.00
2023-09-23T05:28:09.997Z,100.00
2023-09-23T05:29:13.205Z,100.00
2023-09-23T05:30:15.592Z,100.00
2023-09-23T05:31:18.899Z,100.00
2023-09-23T05:32:21.741Z,100.00
2023-09-23T05:33:24.779Z,100.00
2023-09-23T05:34:28.413Z,100.00
2023-09-23T05:35:31.228Z,100.00
2023-09-23T05:36:33.852Z,100.00
2023-09-23T05:37:36.821Z,100.00
2023-09-23T05:38:38.707Z,100.00
2023-09-23T05:39:46.752Z,100.00
2023-09-23T05:40:48.817Z,100.00
2023-09-23T05:41:52.502Z,100.00
2023-09-23T05:42:54.468Z,100.00
2023-09-23T05:43:57.365Z,100.00
2023-09-23T05:44:59.180Z,100.00
2023-09-23T05:46:05.599Z,100.00
2023-09-23T05:47:07.632Z,100.00
2023-09-23T05:48:10.988Z,100.00
2023-09-23T05:49:13.205Z,100.00
2023-09-23T05:50:19.070Z,100.00
2023-09-23T05:51:21.034Z,100.00
2023-09-23T05:52:23.849Z,100.00
2023-09-23T05:53:25.753Z,100.00
2023-09-23T05:54:28.553Z,100.00
2023-09-23T05:55:32.225Z,100.00
2023-09-23T05:56:35.078Z,100.00
2023-09-23T05:57:39.526Z,100.00
2023-09-23T05:58:42.339Z,100.00
2023-09-23T05:59:44.208Z,100.00
2023-09-23T06:00:49.025Z,100.00
2023-09-23T06:01:50.908Z,100.00
2023-09-23T06:02:53.883Z,100.00
2023-09-23T06:03:56.997Z,100.00
2023-09-23T06:05:02.258Z,100.00
2023-09-23T06:06:06.696Z,100.00
2023-09-23T06:07:08.602Z,100.00
2023-09-23T06:08:11.557Z,100.00
2023-09-23T06:09:13.420Z,100.00
2023-09-23T06:10:16.431Z,100.00
2023-09-23T06:11:18.411Z,100.00
2023-09-23T06:12:21.259Z,100.00
2023-09-23T06:13:23.219Z,100.00
2023-09-23T06:14:26.511Z,100.00
2023-09-23T06:15:29.589Z,100.00
2023-09-23T06:16:32.460Z,100.00
2023-09-23T06:17:34.370Z,100.00
2023-09-23T06:18:37.362Z,100.00
2023-09-23T06:19:39.239Z,100.00
2023-09-23T06:20:42.024Z,100.00
2023-09-23T06:21:45.249Z,100.00
2023-09-23T06:22:49.175Z,100.00
2023-09-23T06:23:51.635Z,100.00
2023-09-23T06:24:55.193Z,100.00
2023-09-23T06:25:57.258Z,100.00
2023-09-23T06:27:00.078Z,100.00
2023-09-23T06:28:02.008Z,100.00
2023-09-23T06:29:05.696Z,100.00
2023-09-23T06:30:08.622Z,100.00
2023-09-23T06:31:13.455Z,100.00
2023-09-23T06:32:15.289Z,100.00
2023-09-23T06:33:18.119Z,100.00
2023-09-23T06:34:20.075Z,100.00
2023-09-23T06:35:22.913Z,100.00
2023-09-23T06:36:24.731Z,100.00
2023-09-23T06:37:28.924Z,100.00
2023-09-23T06:38:30.886Z,100.00
2023-09-23T06:39:33.788Z,100.00
2023-09-23T06:40:35.637Z,100.00
2023-09-23T06:41:38.410Z,100.00
2023-09-23T06:42:40.793Z,100.00
2023-09-23T06:43:43.784Z,100.00
2023-09-23T06:44:46.413Z,100.00
2023-09-23T06:45:55.170Z,100.00
2023-09-23T06:46:57.102Z,100.00
2023-09-23T06:48:00.135Z,100.00
2023-09-23T06:49:02.302Z,100.00
2023-09-23T06:50:06.147Z,100.00
2023-09-23T06:51:07.984Z,100.00
2023-09-23T06:52:10.813Z,100.00
2023-09-23T06:53:14.088Z,100.00
2023-09-23T06:54:15.955Z,100.00
2023-09-23T06:55:19.049Z,100.00
2023-09-23T06:56:20.945Z,100.00
2023-09-23T06:57:23.775Z,100.00
2023-09-23T06:58:25.630Z,100.00
2023-09-23T06:59:28.574Z,100.00
2023-09-23T07:00:30.503Z,100.00
2023-09-23T07:01:34.498Z,100.00
2023-09-23T07:02:36.597Z,100.00
2023-09-23T07:03:39.530Z,100.00
2023-09-23T07:04:41.625Z,100.00
2023-09-23T07:05:44.691Z,100.00
2023-09-23T07:06:47.254Z,100.00
2023-09-23T07:07:50.330Z,100.00
2023-09-23T07:08:53.550Z,100.00
2023-09-23T07:09:56.473Z,100.00
2023-09-23T07:10:58.405Z,100.00
2023-09-23T07:12:01.253Z,100.00
2023-09-23T07:13:05.092Z,100.00
2023-09-23T07:14:08.009Z,100.00
2023-09-23T07:15:10.706Z,100.00
2023-09-23T07:16:15.237Z,100.00
2023-09-23T07:17:18.935Z,100.00
2023-09-23T07:18:21.853Z,100.00
2023-09-23T07:19:23.697Z,100.00
2023-09-23T07:20:26.689Z,100.00
2023-09-23T07:21:28.708Z,100.00
2023-09-23T07:22:31.482Z,100.00
2023-09-23T07:23:34.084Z,100.00
2023-09-23T07:24:39.721Z,100.00
2023-09-23T07:25:43.307Z,100.00
2023-09-23T07:26:46.124Z,100.00
2023-09-23T07:27:48.218Z,100.00
2023-09-23T07:28:51.590Z,100.00
2023-09-23T07:29:53.534Z,100.00
2023-09-23T07:30:57.248Z,100.00
2023-09-23T07:31:59.352Z,100.00
2023-09-23T07:33:02.514Z,100.00
2023-09-23T07:34:04.459Z,100.00
2023-09-23T07:35:08.752Z,100.00
2023-09-23T07:36:11.653Z,100.00
2023-09-23T07:37:15.296Z,100.00
2023-09-23T07:38:17.188Z,100.00
2023-09-23T07:39:19.987Z,100.00
2023-09-23T07:40:23.235Z,100.00
2023-09-23T07:41:26.114Z,100.00
2023-09-23T07:42:27.996Z,100.00
2023-09-23T07:43:30.861Z,100.00
2023-09-23T07:44:32.719Z,100.00
2023-09-23T07:45:35.613Z,100.00
2023-09-23T07:46:38.145Z,100.00
2023-09-23T07:47:41.094Z,100.00
2023-09-23T07:48:42.985Z,100.00
2023-09-23T07:49:46.040Z,100.00
2023-09-23T07:50:48.028Z,100.00
2023-09-23T07:51:50.826Z,100.00
2023-09-23T07:52:53.081Z,100.00
2023-09-23T07:53:55.905Z,100.00
2023-09-23T07:54:57.710Z,100.00
2023-09-23T07:56:01.870Z,100.00
2023-09-23T07:57:03.799Z,100.00
2023-09-23T07:58:07.318Z,100.00
2023-09-23T07:59:09.602Z,100.00
2023-09-23T08:00:13.428Z,100.00
2023-09-23T08:01:15.303Z,100.00
2023-09-23T08:02:18.162Z,100.00
2023-09-23T08:03:20.071Z,100.00
2023-09-23T08:04:22.944Z,100.00
2023-09-23T08:05:25.390Z,100.00
2023-09-23T08:06:28.499Z,100.00
2023-09-23T08:07:30.637Z,100.00
2023-09-23T08:08:33.577Z,100.00
2023-09-23T08:09:35.474Z,100.00
2023-09-23T08:10:38.297Z,100.00
2023-09-23T08:11:41.501Z,100.00
2023-09-23T08:12:44.302Z,100.00
2023-09-23T08:13:46.348Z,100.00
2023-09-23T08:14:49.290Z,100.00
2023-09-23T08:15:51.200Z,100.00
2023-09-23T08:16:54.090Z,100.00
2023-09-23T08:17:56.033Z,100.00
2023-09-23T08:18:58.854Z,100.00
2023-09-23T08:20:00.887Z,100.00
2023-09-23T08:21:03.884Z,100.00
2023-09-23T08:22:05.813Z,100.00
2023-09-23T08:23:09.802Z,100.00
2023-09-23T08:24:11.692Z,100.00
2023-09-23T08:25:14.720Z,100.00
2023-09-23T08:26:16.862Z,100.00
2023-09-23T08:27:21.377Z,100.00
2023-09-23T08:28:24.055Z,100.00
2023-09-23T08:29:27.201Z,100.00
2023-09-23T08:30:29.210Z,100.00
2023-09-23T08:31:32.542Z,100.00
2023-09-23T08:32:34.497Z,100.00
2023-09-23T08:33:37.844Z,100.00
2023-09-23T08:34:39.715Z,100.00
2023-09-23T08:35:43.629Z,100.00
2023-09-23T08:36:45.483Z,100.00
2023-09-23T08:37:48.336Z,100.00
2023-09-23T08:38:50.172Z,100.00
2023-09-23T08:39:53.412Z,100.00
2023-09-23T08:40:55.358Z,100.00
2023-09-23T08:41:59.207Z,100.00
2023-09-23T08:43:05.455Z,100.00
2023-09-23T08:44:08.648Z,100.00
2023-09-23T08:45:11.076Z,100.00
2023-09-23T08:46:13.276Z,100.00
2023-09-23T08:47:16.321Z,100.00
2023-09-23T08:48:18.565Z,100.00
2023-09-23T08:49:23.032Z,100.00
2023-09-23T08:50:25.315Z,100.00
2023-09-23T08:51:28.641Z,100.00
2023-09-23T08:52:31.833Z,100.00
2023-09-23T08:53:34.583Z,100.00
2023-09-23T08:54:37.606Z,100.00
2023-09-23T08:55:39.556Z,100.00
2023-09-23T08:56:42.333Z,100.00
2023-09-23T08:57:44.301Z,100.00
2023-09-23T08:58:50.168Z,100.00
2023-09-23T08:59:52.332Z,100.00
2023-09-23T09:00:55.562Z,100.00
2023-09-23T09:01:57.691Z,100.00
2023-09-23T09:03:00.532Z,100.00
2023-09-23T09:04:02.361Z,100.00
2023-09-23T09:05:06.033Z,100.00
2023-09-23T09:06:16.390Z,100.00
2023-09-23T09:07:19.178Z,100.00
2023-09-23T09:08:21.051Z,100.00
2023-09-23T09:09:24.703Z,100.00
2023-09-23T09:10:26.831Z,100.00
2023-09-23T09:11:29.790Z,100.00
2023-09-23T09:12:32.480Z,100.00
2023-09-23T09:13:36.653Z,100.00
2023-09-23T09:14:40.042Z,100.00
2023-09-23T09:15:42.864Z,100.00
2023-09-23T09:16:45.044Z,100.00
2023-09-23T09:17:47.941Z,100.00
2023-09-23T10:00:26.233Z,100.00
2023-09-23T10:01:29.831Z,100.00
2023-09-23T10:02:34.108Z,100.00
2023-09-23T10:03:37.877Z,100.00
2023-09-23T10:04:47.407Z,100.00
2023-09-23T10:05:51.584Z,100.00
2023-09-23T10:06:56.530Z,100.00
2023-09-23T10:08:21.187Z,100.00
2023-09-23T10:09:28.358Z,100.00
2023-09-23T10:10:33.809Z,100.00
2023-09-23T10:11:36.842Z,100.00
2023-09-23T10:12:38.705Z,100.00
2023-09-23T10:13:41.541Z,100.00
2023-09-23T10:14:53.573Z,100.00
2023-09-23T10:16:06.103Z,100.00
2023-09-23T10:17:09.270Z,100.00
2023-09-23T10:18:13.390Z,100.00
2023-09-23T10:19:16.800Z,100.00
2023-09-23T10:20:20.479Z,100.00
2023-09-23T10:21:23.273Z,100.00
2023-09-23T10:22:26.422Z,100.00
2023-09-23T10:23:28.403Z,100.00
2023-09-23T10:24:34.561Z,100.00
2023-09-23T10:25:40.880Z,100.00
2023-09-23T10:26:45.304Z,100.00
2023-09-23T10:27:57.611Z,100.00
2023-09-23T10:29:01.343Z,100.00
2023-09-23T10:30:05.471Z,100.00
2023-09-23T10:31:10.792Z,100.00
2023-09-23T10:32:15.440Z,100.00
2023-09-23T10:33:19.063Z,100.00
2023-09-23T10:34:20.988Z,100.00
2023-09-23T10:35:24.967Z,100.00
2023-09-23T10:36:27.522Z,100.00
2023-09-23T10:37:30.760Z,100.00
2023-09-23T10:38:38.916Z,100.00
2023-09-23T10:39:44.601Z,100.00
2023-09-23T10:40:51.529Z,100.00
2023-09-23T10:41:53.357Z,100.00
2023-09-23T10:42:55.167Z,100.00
2023-09-23T10:43:57.964Z,100.00
2023-09-23T10:45:00.433Z,100.00
2023-09-23T10:46:03.836Z,100.00
2023-09-23T10:47:07.156Z,100.00
2023-09-23T10:48:10.195Z,100.00
2023-09-23T10:49:12.151Z,100.00
2023-09-23T10:50:15.327Z,100.00
2023-09-23T10:51:17.239Z,100.00
2023-09-23T10:52:20.282Z,100.00
2023-09-23T10:53:22.754Z,100.00
2023-09-23T10:54:26.170Z,100.00
2023-09-23T10:55:27.994Z,100.00
2023-09-23T10:56:31.195Z,100.00
2023-09-23T10:57:33.069Z,100.00
2023-09-23T10:58:37.435Z,100.00
2023-09-23T10:59:39.502Z,100.00
2023-09-23T11:00:43.413Z,100.00
2023-09-23T11:01:46.658Z,100.00
2023-09-23T11:02:54.323Z,100.00
2023-09-23T11:03:56.493Z,100.00
2023-09-23T11:04:59.357Z,100.00
2023-09-23T11:06:01.184Z,100.00
2023-09-23T11:07:04.765Z,100.00
2023-09-23T11:08:07.114Z,100.00
2023-09-23T11:09:09.001Z,100.00
2023-09-23T11:10:15.374Z,100.00
2023-09-23T11:11:18.507Z,100.00
2023-09-23T11:12:21.334Z,100.00
2023-09-23T11:13:23.174Z,100.00
2023-09-23T11:14:28.855Z,100.00
2023-09-23T11:15:31.697Z,100.00
2023-09-23T11:16:34.723Z,100.00
2023-09-23T11:17:36.744Z,100.00
2023-09-23T11:18:40.998Z,100.00
2023-09-23T11:19:52.919Z,100.00
2023-09-23T11:20:55.723Z,100.00
2023-09-23T11:21:57.843Z,100.00
2023-09-23T11:23:03.432Z,100.00
2023-09-23T11:24:06.046Z,100.00
2023-09-23T11:25:11.243Z,100.00
2023-09-23T11:26:13.126Z,100.00
2023-09-23T11:27:15.947Z,100.00
2023-09-23T11:28:18.795Z,100.00
2023-09-23T11:29:22.798Z,100.00
2023-09-23T11:30:24.959Z,100.00
2023-09-23T11:31:27.799Z,100.00
2023-09-23T11:32:29.789Z,100.00
2023-09-23T11:33:32.682Z,100.00
2023-09-23T11:34:37.646Z,100.00
2023-09-23T11:35:40.582Z,100.00
2023-09-23T11:36:42.499Z,100.00
2023-09-23T11:37:47.968Z,100.00
2023-09-23T11:38:50.764Z,100.00
2023-09-23T11:39:53.632Z,100.00
2023-09-23T11:40:55.800Z,100.00
2023-09-23T11:41:59.408Z,100.00
2023-09-23T11:43:01.312Z,100.00
2023-09-23T11:44:04.140Z,100.00
2023-09-23T11:45:06.958Z,100.00
2023-09-23T11:46:09.975Z,100.00
2023-09-23T11:47:12.048Z,100.00
2023-09-23T11:48:14.983Z,100.00
2023-09-23T11:49:16.842Z,100.00
2023-09-23T11:50:21.133Z,100.00
2023-09-23T11:51:23.076Z,100.00
2023-09-23T11:52:26.465Z,100.00
2023-09-23T11:53:28.442Z,100.00
2023-09-23T11:54:31.381Z,100.00
2023-09-23T11:55:34.306Z,100.00
2023-09-23T11:56:40.071Z,100.00
2023-09-23T11:57:42.056Z,100.00
2023-09-23T11:58:54.643Z,100.00
2023-09-23T12:01:58.390Z,100.00
2023-09-23T12:03:00.444Z,100.00
2023-09-23T12:04:03.633Z,100.00
2023-09-23T12:05:07.646Z,100.00
2023-09-23T12:06:12.038Z,100.00
2023-09-23T12:07:15.353Z,100.00
2023-09-23T12:08:18.224Z,100.00
2023-09-23T12:09:20.108Z,100.00
2023-09-23T12:10:23.725Z,100.00
2023-09-23T12:11:25.597Z,100.00
2023-09-23T12:12:31.183Z,100.00
2023-09-23T12:13:33.165Z,100.00
2023-09-23T12:14:36.024Z,100.00
2023-09-23T12:15:37.921Z,100.00
2023-09-23T12:16:42.555Z,100.00
2023-09-23T12:17:45.219Z,100.00
2023-09-23T12:18:49.395Z,100.00
2023-09-23T12:19:51.626Z,100.00
2023-09-23T12:20:54.800Z,100.00
2023-09-23T12:21:58.025Z,100.00
2023-09-23T12:23:02.015Z,100.00
2023-09-23T12:24:04.947Z,100.00
2023-09-23T12:25:08.354Z,100.00
2023-09-23T12:26:11.015Z,100.00
2023-09-23T12:27:14.367Z,100.00
2023-09-23T12:28:16.257Z,100.00
2023-09-23T12:29:19.093Z,100.00
2023-09-23T12:30:20.967Z,100.00
2023-09-23T12:31:25.175Z,100.00
2023-09-23T12:32:27.067Z,100.00
2023-09-23T12:33:30.052Z,100.00
2023-09-23T12:34:51.470Z,100.00
2023-09-23T12:35:53.376Z,100.00
2023-09-23T12:36:56.170Z,100.00
2023-09-23T12:37:59.385Z,100.00
2023-09-23T12:39:02.291Z,100.00
2023-09-23T12:40:05.441Z,100.00
2023-09-23T12:41:08.247Z,100.00
2023-09-23T12:42:10.725Z,100.00
2023-09-23T12:43:13.533Z,100.00
2023-09-23T12:44:28.561Z,100.00
2023-09-23T12:45:31.647Z,100.00
2023-09-23T12:46:33.507Z,100.00
2023-09-23T12:48:41.470Z,100.00
2023-09-23T12:49:44.924Z,100.00
2023-09-23T12:50:46.865Z,100.00
2023-09-23T12:51:49.683Z,100.00
2023-09-23T12:52:51.829Z,100.00
2023-09-23T12:53:56.009Z,100.00
2023-09-23T12:54:57.832Z,100.00
2023-09-23T12:55:59.717Z,100.00
2023-09-23T12:57:02.499Z,100.00
2023-09-23T12:58:06.500Z,100.00
2023-09-23T12:59:09.327Z,100.00
2023-09-23T13:00:12.760Z,100.00
2023-09-23T13:01:15.761Z,100.00
2023-09-23T13:02:17.730Z,100.00
2023-09-23T13:03:20.682Z,100.00
2023-09-23T13:04:34.625Z,100.00
2023-09-23T13:05:37.598Z,100.00
2023-09-23T13:06:40.040Z,100.00
2023-09-23T13:07:42.830Z,100.00
2023-09-23T13:08:44.970Z,100.00
2023-09-23T13:09:49.741Z,100.00
2023-09-23T13:10:51.605Z,100.00
2023-09-23T13:11:54.662Z,100.00
2023-09-23T13:12:56.483Z,100.00
2023-09-23T13:13:59.319Z,100.00
2023-09-23T13:15:01.144Z,100.00
2023-09-23T13:16:04.198Z,100.00
2023-09-23T13:17:07.054Z,100.00
2023-09-23T13:18:17.521Z,100.00
2023-09-23T13:19:20.365Z,100.00
2023-09-23T13:20:22.250Z,100.00
2023-09-23T13:21:25.045Z,100.00
2023-09-23T13:22:27.248Z,100.00
2023-09-23T13:23:30.062Z,100.00
2023-09-23T13:24:34.143Z,100.00
2023-09-23T13:25:38.412Z,100.00
2023-09-23T13:26:40.364Z,100.00
2023-09-23T13:27:43.484Z,100.00
2023-09-23T13:28:45.587Z,100.00
2023-09-23T13:29:48.611Z,100.00
2023-09-23T13:30:50.496Z,100.00
2023-09-23T13:31:53.331Z,100.00
2023-09-23T13:33:09.826Z,100.00
2023-09-23T13:34:12.937Z,100.00
2023-09-23T13:35:14.958Z,100.00
2023-09-23T13:36:17.902Z,100.00
2023-09-23T13:37:19.814Z,100.00
2023-09-23T13:38:21.749Z,100.00
2023-09-23T13:39:24.604Z,100.00
2023-09-23T13:40:26.478Z,100.00
2023-09-23T13:41:32.152Z,100.00
2023-09-23T13:42:34.100Z,100.00
2023-09-23T13:43:42.994Z,100.00
2023-09-23T13:44:50.818Z,100.00
2023-09-23T13:45:53.611Z,100.00
2023-09-23T13:46:55.532Z,100.00
2023-09-23T13:47:58.499Z,100.00
2023-09-23T13:49:00.380Z,100.00
2023-09-23T13:50:03.599Z,100.00
2023-09-23T13:51:07.857Z,100.00
2023-09-23T13:52:11.354Z,100.00
2023-09-23T13:53:13.245Z,100.00
2023-09-23T13:54:16.098Z,100.00
2023-09-23T13:55:17.967Z,100.00
2023-09-23T13:56:20.904Z,100.00
2023-09-23T13:57:24.148Z,100.00
2023-09-23T13:58:26.933Z,100.00
2023-09-23T13:59:28.775Z,100.00
2023-09-23T14:00:32.765Z,100.00
2023-09-23T14:01:34.763Z,100.00
2023-09-23T14:02:41.247Z,100.00
2023-09-23T14:03:43.243Z,100.00
2023-09-23T14:04:46.122Z,100.00